createdAt,value
2023-01-10T00:06:06.410Z,6.06
2023-01-10T00:21:08.818Z,5.99
2023-01-10T00:36:11.184Z,6.31
2023-01-10T00:51:13.438Z,5.94
2023-01-10T01:06:15.822Z,5.48
2023-01-10T01:21:18.178Z,6.19
2023-01-10T01:36:20.447Z,6.57
2023-01-10T01:51:22.772Z,6.1
2023-01-10T02:06:25.214Z,5.35
2023-01-10T02:21:27.540Z,5.34
2023-01-10T02:36:29.856Z,5.79
2023-01-10T02:51:32.204Z,5.34
2023-01-10T03:06:34.592Z,5.74
2023-01-10T03:21:36.927Z,5.29
2023-01-10T03:36:39.331Z,4.77
2023-01-10T03:51:41.850Z,5.54
2023-01-10T04:06:44.180Z,5.57
2023-01-10T04:21:46.486Z,5.35
2023-01-10T04:36:50.602Z,5.41
2023-01-10T04:51:53.299Z,5.43
2023-01-10T05:06:55.617Z,4.73
2023-01-10T05:21:58.000Z,5.13
2023-01-10T05:37:00.341Z,5.37
2023-01-10T05:52:02.678Z,5.41
2023-01-10T06:07:05.048Z,5.29
2023-01-10T06:22:07.401Z,5
2023-01-10T06:37:09.659Z,5.02
2023-01-10T06:52:12.406Z,5.64
2023-01-10T07:07:15.019Z,5.46
2023-01-10T07:22:17.503Z,5.22
2023-01-10T07:37:19.839Z,5.23
2023-01-10T07:52:22.151Z,4.24
2023-01-10T08:07:24.555Z,5.26
2023-01-10T08:22:27.053Z,5.39
2023-01-10T08:37:31.188Z,5.57
2023-01-10T08:52:33.876Z,5.08
2023-01-10T09:07:37.757Z,5.19
2023-01-10T09:22:40.257Z,5.74
2023-01-10T09:37:42.711Z,5.99
2023-01-10T09:52:45.163Z,5.9
2023-01-10T10:07:47.659Z,5.69
2023-01-10T10:22:50.127Z,5.53
2023-01-10T10:37:52.598Z,5.13
2023-01-10T10:52:55.041Z,5.45
2023-01-10T11:07:57.541Z,5.76
2023-01-10T11:23:00.032Z,5.53
2023-01-10T11:38:03.552Z,5.76
2023-01-10T11:53:05.977Z,5.36
2023-01-10T12:08:08.422Z,5.47
2023-01-10T12:23:10.948Z,5.5
2023-01-10T12:38:13.413Z,5.98
2023-01-10T12:53:15.876Z,5.65
2023-01-10T13:08:18.411Z,5.65
2023-01-10T13:23:20.905Z,5.63
2023-01-10T13:38:23.411Z,6
2023-01-10T13:53:25.922Z,5.91
2023-01-10T14:08:28.339Z,5.5
2023-01-10T14:23:30.796Z,5.59
2023-01-10T14:38:33.371Z,4.56
2023-01-10T14:53:35.861Z,5.14
2023-01-10T15:08:38.350Z,5.69
2023-01-10T15:23:40.802Z,5.61
2023-01-10T15:38:43.435Z,5.04
2023-01-10T15:53:46.866Z,5.32
2023-01-10T16:08:49.313Z,5.88
2023-01-10T16:23:51.854Z,5.68
2023-01-10T16:38:54.411Z,5.21
2023-01-10T16:53:57.964Z,5.47
2023-01-10T17:09:00.415Z,5.83
2023-01-10T17:24:02.713Z,5.91
2023-01-10T17:39:05.025Z,6.05
2023-01-10T17:54:07.359Z,6.17
2023-01-10T18:09:09.734Z,6.31
2023-01-10T18:24:12.115Z,6.22
2023-01-10T18:39:14.424Z,6.37
2023-01-10T18:54:16.795Z,6.29
2023-01-10T19:09:19.087Z,6.09
2023-01-10T19:24:21.544Z,6.97
2023-01-10T19:39:23.881Z,7.06
2023-01-10T19:54:26.234Z,7.14
2023-01-10T20:09:28.603Z,7.47
2023-01-10T20:24:30.922Z,7.62
2023-01-10T20:39:33.187Z,7.85
2023-01-10T20:54:35.483Z,8.2
2023-01-10T21:09:37.812Z,8.37
2023-01-10T21:24:40.146Z,8.11
2023-01-10T21:39:42.584Z,8
2023-01-10T21:54:44.885Z,8.43
2023-01-10T22:09:47.200Z,7.99
2023-01-10T22:24:49.532Z,7.96
2023-01-10T22:39:51.898Z,8.1
2023-01-10T22:54:54.239Z,8.56
2023-01-10T23:09:56.630Z,8.3
2023-01-10T23:24:59.015Z,8.44
2023-01-10T23:40:01.338Z,7.93
2023-01-10T23:55:03.681Z,8.13
